Cape May Point, DE

10:18 PM EST on February 07, 2016 (GMT -0500)
NOS_PORTS | | Change Station
CLOSE
Current Station
Personal Weather Station
Location: Cape May Point, NJ
Elevation: 0 ft
Nearby Weather Stations

Elev 0 ft 38.99 °N, 75.11 °W | Updated 1 hour ago

Mostly Cloudy
Mostly Cloudy
40 °F
Feels Like 30 °F
N
23
Wind Variable Wind from NNE
Gusts 26.0 mph

Today
High -- | Low -- °F
--% Chance of Precip.
Yesterday
High -- | Low -- °F
Precip. -- in
Pressure 29.81 in
Visibility 10.0 miles
Clouds Clear
Windchill 30 °F
Dew Point Not available.
Humidity Not available.
Rainfall in
Snow Depth Not available.
7:01 AM 5:28 PM
Waning Crescent, 0% visible
METAR KWWD 080315Z AUTO 01011KT 10SM CLR 04/M01 A2981 RMK AO1
Pressure 29.81 in
Visibility 10.0 miles
Clouds Clear
Windchill 30 °F
Dew Point Not available.
Humidity Not available.
Rainfall in
Snow Depth Not available.
7:01 AM 5:28 PM
Waning Crescent, 0% visible
METAR KWWD 080315Z AUTO 01011KT 10SM CLR 04/M01 A2981 RMK AO1

10-Day Weather Forecast

Almanac

Astronomy

Feb. 07, 2016 Rise Set
Actual Time
Civil Twilight
Nautical Twilight
Astronomical Twilight
Moon
Length of Visible Light
Length of Day
Tomorrow will be .
, % of the Moon is Illuminated

Today's Extremes

State Highs State Lows

Community

WunderPhotos

Upload Photos

1,891,375 photos uploaded!

WunderBlog® & News

Nearby

Air Quality

  Air Quality AQ Index Pollutant
Not available.

Snow Depth

Station Depth Elevation

Earthquake Activity

City Distance Mag. Time & Date
Minimum magnitude displayed is 2.5.

Coastal Water Temperatures

Place Temperature

Stations

Nearby Weather Stations

Station Location Temp. Windchill Dew Point Humidity Wind Precip. Elev Updated Type
                   

Watches & Warnings

There are currently no watches in effect.